createdAt,value
2023-01-11T00:00:42.564Z,74.67
2023-01-11T00:03:44.289Z,74.67
2023-01-11T00:06:46.703Z,75.37
2023-01-11T00:09:48.353Z,75.17
2023-01-11T00:12:50.196Z,75.68
2023-01-11T00:16:04.909Z,76.08
2023-01-11T00:19:06.927Z,76.38
2023-01-11T00:22:08.472Z,76.22
2023-01-11T00:25:10.131Z,76.66
2023-01-11T00:28:11.690Z,76.54
2023-01-11T00:31:13.276Z,76.75
2023-01-11T00:34:14.903Z,76.94
2023-01-11T00:37:16.447Z,77.75
2023-01-11T00:40:18.141Z,77.78
2023-01-11T00:43:38.470Z,77.34
2023-01-11T00:46:58.522Z,78.10
2023-01-11T00:50:00.309Z,78.39
2023-01-11T00:53:02.240Z,78.31
2023-01-11T00:56:04.056Z,78.92
2023-01-11T00:59:06.148Z,78.89
2023-01-11T01:02:09.492Z,78.99
2023-01-11T01:05:11.130Z,79.83
2023-01-11T01:08:12.696Z,80.04
2023-01-11T01:11:14.452Z,80.29
2023-01-11T01:14:28.555Z,80.69
2023-01-11T01:17:30.136Z,81.00
2023-01-11T01:20:31.739Z,81.02
2023-01-11T01:23:33.303Z,81.02
2023-01-11T01:26:34.974Z,81.30
2023-01-11T01:29:36.581Z,81.04
2023-01-11T01:32:38.160Z,81.51
2023-01-11T01:35:39.738Z,82.15
2023-01-11T01:38:41.277Z,81.71
2023-01-11T01:41:42.911Z,81.71
2023-01-11T01:44:53.702Z,82.05
2023-01-11T01:48:00.356Z,82.48
2023-01-11T01:51:02.734Z,82.62
2023-01-11T01:54:08.630Z,82.77
2023-01-11T01:57:18.192Z,82.91
2023-01-11T02:00:20.393Z,83.85
2023-01-11T02:03:26.664Z,84.42
2023-01-11T02:06:28.192Z,84.24
2023-01-11T02:09:36.253Z,85.20
2023-01-11T02:12:40.040Z,84.98
2023-01-11T02:15:41.736Z,85.52
2023-01-11T02:18:43.515Z,86.25
2023-01-11T02:22:06.087Z,86.67
2023-01-11T02:25:29.340Z,86.62
2023-01-11T02:28:59.735Z,87.04
2023-01-11T02:32:09.979Z,87.94
2023-01-11T02:35:27.971Z,88.72
2023-01-11T02:38:33.938Z,89.12
2023-01-11T02:42:15.145Z,89.54
2023-01-11T02:45:41.395Z,89.06
2023-01-11T02:48:59.726Z,88.72
2023-01-11T02:52:08.981Z,89.09
2023-01-11T02:55:15.021Z,89.70
2023-01-11T02:58:19.918Z,89.39
2023-01-11T03:01:22.878Z,89.15
2023-01-11T03:04:30.597Z,88.42
2023-01-11T03:07:47.301Z,89.66
2023-01-11T03:11:04.086Z,89.11
2023-01-11T03:14:28.818Z,89.30
2023-01-11T03:18:04.231Z,90.31
2023-01-11T03:21:32.818Z,93.46
2023-01-11T03:24:44.261Z,94.28
2023-01-11T03:27:54.764Z,94.91
2023-01-11T03:31:05.314Z,94.78
2023-01-11T03:34:15.257Z,95.96
2023-01-11T03:37:29.390Z,95.13
2023-01-11T03:40:36.360Z,95.95
2023-01-11T03:43:43.970Z,94.97
2023-01-11T03:46:54.279Z,95.00
2023-01-11T03:50:04.761Z,93.52
2023-01-11T03:53:08.742Z,93.82
2023-01-11T03:56:12.917Z,93.58
2023-01-11T03:59:14.741Z,93.74
2023-01-11T04:02:19.401Z,94.34
2023-01-11T04:05:24.100Z,94.37
2023-01-11T04:08:26.031Z,93.57
2023-01-11T04:11:27.634Z,93.61
2023-01-11T04:14:29.241Z,93.35
2023-01-11T04:17:35.522Z,92.83
2023-01-11T04:20:40.306Z,92.21
2023-01-11T04:23:41.955Z,90.77
2023-01-11T04:26:43.653Z,90.33
2023-01-11T04:29:46.280Z,89.70
2023-01-11T04:32:47.901Z,89.61
2023-01-11T04:36:06.942Z,89.12
2023-01-11T04:39:23.320Z,89.61
2023-01-11T04:42:34.464Z,89.20
2023-01-11T04:45:36.031Z,88.31
2023-01-11T04:48:50.175Z,87.95
2023-01-11T04:51:57.522Z,87.64
2023-01-11T04:54:59.119Z,87.40
2023-01-11T04:58:00.703Z,87.33
2023-01-11T05:01:09.845Z,87.09
2023-01-11T05:04:18.946Z,87.14
2023-01-11T05:07:20.525Z,86.31
2023-01-11T05:10:22.088Z,86.85
2023-01-11T05:13:41.544Z,85.96
2023-01-11T05:16:43.294Z,86.51
2023-01-11T05:19:44.978Z,86.33
2023-01-11T05:22:46.513Z,86.72
2023-01-11T05:25:49.591Z,87.11
2023-01-11T05:29:06.583Z,86.51
2023-01-11T05:32:08.409Z,86.58
2023-01-11T05:35:11.242Z,87.27
2023-01-11T05:38:12.995Z,86.55
2023-01-11T05:41:15.947Z,86.70
2023-01-11T05:44:36.584Z,86.61
2023-01-11T05:47:40.108Z,87.16
2023-01-11T05:50:56.456Z,86.81
2023-01-11T05:54:14.609Z,87.19
2023-01-11T05:57:16.189Z,87.21
2023-01-11T06:00:20.640Z,86.73
2023-01-11T06:03:24.189Z,86.56
2023-01-11T06:06:28.328Z,86.98
2023-01-11T06:09:30.207Z,86.18
2023-01-11T06:12:42.722Z,85.72
2023-01-11T06:15:45.048Z,85.18
2023-01-11T06:18:49.639Z,85.13
2023-01-11T06:21:53.159Z,85.42
2023-01-11T06:24:54.794Z,85.29
2023-01-11T06:27:57.347Z,84.80
2023-01-11T06:30:59.535Z,84.43
2023-01-11T06:34:01.276Z,84.94
2023-01-11T06:37:02.891Z,85.30
2023-01-11T06:40:06.510Z,85.61
2023-01-11T06:43:09.519Z,86.60
2023-01-11T06:46:15.976Z,86.58
2023-01-11T06:49:17.560Z,85.73
2023-01-11T06:52:19.166Z,86.47
2023-01-11T06:55:22.241Z,86.01
2023-01-11T06:58:25.409Z,86.18
2023-01-11T07:01:28.434Z,86.85
2023-01-11T07:04:30.997Z,86.76
2023-01-11T07:07:32.558Z,87.17
2023-01-11T07:10:34.315Z,87.61
2023-01-11T07:13:35.888Z,87.83
2023-01-11T07:16:37.450Z,87.69
2023-01-11T07:19:39.024Z,87.87
2023-01-11T07:22:40.858Z,88.33
2023-01-11T07:25:42.669Z,87.48
2023-01-11T07:28:44.391Z,87.70
2023-01-11T07:31:47.304Z,88.02
2023-01-11T07:34:48.973Z,88.00
2023-01-11T07:37:50.656Z,87.34
2023-01-11T07:40:52.313Z,87.08
2023-01-11T07:43:54.174Z,86.88
2023-01-11T07:46:55.948Z,86.64
2023-01-11T07:49:57.615Z,87.37
2023-01-11T07:52:59.190Z,87.56
2023-01-11T07:56:01.023Z,87.18
2023-01-11T07:59:02.635Z,87.39
2023-01-11T08:02:05.383Z,87.35
2023-01-11T08:05:07.673Z,86.86
2023-01-11T08:08:09.394Z,86.90
2023-01-11T08:11:30.917Z,86.51
2023-01-11T08:14:41.559Z,86.63
2023-01-11T08:17:43.167Z,85.86
2023-01-11T08:20:45.702Z,85.61
2023-01-11T08:23:47.830Z,85.89
2023-01-11T08:26:49.576Z,85.08
2023-01-11T08:29:51.165Z,84.70
2023-01-11T08:32:52.791Z,84.45
2023-01-11T08:35:54.400Z,83.90
2023-01-11T08:38:57.180Z,84.63
2023-01-11T08:41:59.501Z,84.34
2023-01-11T08:45:01.165Z,84.49
2023-01-11T08:48:02.695Z,83.31
2023-01-11T08:51:04.605Z,82.94
2023-01-11T08:54:10.056Z,82.90
2023-01-11T08:57:11.675Z,82.76
2023-01-11T09:00:13.984Z,82.94
2023-01-11T09:03:15.773Z,82.09
2023-01-11T09:06:18.915Z,82.62
2023-01-11T09:09:20.528Z,82.60
2023-01-11T09:12:22.127Z,82.64
2023-01-11T09:15:24.750Z,82.66
2023-01-11T09:18:27.082Z,82.29
2023-01-11T09:21:30.481Z,81.57
2023-01-11T09:24:32.194Z,82.03
2023-01-11T09:27:33.722Z,81.96
2023-01-11T09:30:35.966Z,82.18
2023-01-11T09:33:38.688Z,81.19
2023-01-11T09:36:40.372Z,81.99
2023-01-11T09:39:42.195Z,81.39
2023-01-11T09:42:44.408Z,81.72
2023-01-11T09:45:46.958Z,81.38
2023-01-11T09:48:53.417Z,82.18
2023-01-11T09:52:07.509Z,83.43
2023-01-11T09:55:15.469Z,84.00
2023-01-11T09:58:38.838Z,85.05
2023-01-11T10:01:55.607Z,85.05
2023-01-11T10:05:51.364Z,85.87
2023-01-11T10:18:37.060Z,90.15
2023-01-11T10:19:50.141Z,90.11
2023-01-11T10:22:58.366Z,90.75
2023-01-11T10:26:05.964Z,92.08
2023-01-11T10:29:30.176Z,93.10
2023-01-11T10:32:58.005Z,93.77
2023-01-11T10:36:31.095Z,94.65
2023-01-11T10:39:47.519Z,94.53
2023-01-11T10:43:17.407Z,95.71
2023-01-11T10:46:27.152Z,96.60
2023-01-11T10:49:43.220Z,97.02
2023-01-11T10:53:05.893Z,97.48
2023-01-11T10:56:26.470Z,98.27
2023-01-11T11:00:03.011Z,99.36
2023-01-11T11:03:30.629Z,98.95
2023-01-11T11:06:51.008Z,99.83
2023-01-11T11:10:37.124Z,99.54
2023-01-11T11:13:43.291Z,100.00
2023-01-11T11:17:10.672Z,100.00
2023-01-11T11:20:22.135Z,100.00
2023-01-11T11:23:27.680Z,100.00
2023-01-11T11:26:37.358Z,100.00
2023-01-11T11:29:42.630Z,100.00
2023-01-11T11:32:57.627Z,100.00
2023-01-11T11:36:12.147Z,100.00
2023-01-11T11:39:30.348Z,100.00
2023-01-11T11:42:32.076Z,100.00
2023-01-11T11:45:34.941Z,100.00
2023-01-11T11:48:37.391Z,100.00
2023-01-11T11:51:42.258Z,100.00
2023-01-11T11:54:56.671Z,100.00
2023-01-11T12:01:54.770Z,100.00
2023-01-11T12:05:00.602Z,100.00
2023-01-11T12:08:24.135Z,100.00
2023-01-11T12:11:34.209Z,100.00
2023-01-11T12:22:24.942Z,100.00
2023-01-11T12:25:33.007Z,100.00
2023-01-11T12:29:12.019Z,100.00
2023-01-11T12:32:37.693Z,100.00
2023-01-11T12:35:48.452Z,100.00
2023-01-11T12:38:55.716Z,100.00
2023-01-11T12:42:39.756Z,100.00
2023-01-11T12:46:16.039Z,100.00
2023-01-11T12:50:28.185Z,100.00
2023-01-11T12:53:54.589Z,100.00
2023-01-11T12:57:24.035Z,100.00
2023-01-11T13:00:44.418Z,100.00
2023-01-11T13:04:20.474Z,100.00
2023-01-11T13:07:35.624Z,100.00
2023-01-11T13:11:07.203Z,100.00
2023-01-11T13:14:24.597Z,100.00
2023-01-11T13:17:56.404Z,100.00
2023-01-11T13:21:09.744Z,100.00
2023-01-11T13:24:17.875Z,100.00
2023-01-11T13:27:23.278Z,100.00
2023-01-11T13:30:27.689Z,100.00
2023-01-11T13:33:34.789Z,100.00
2023-01-11T13:36:43.297Z,100.00
2023-01-11T13:39:51.904Z,100.00
2023-01-11T13:42:59.399Z,100.00
2023-01-11T13:46:10.274Z,100.00
2023-01-11T13:49:24.502Z,100.00
2023-01-11T13:52:48.452Z,100.00
2023-01-11T13:55:50.186Z,100.00
2023-01-11T13:59:01.223Z,100.00
2023-01-11T14:02:13.286Z,100.00
2023-01-11T14:05:18.407Z,100.00
2023-01-11T14:08:22.954Z,100.00
2023-01-11T14:11:58.537Z,100.00
2023-01-11T14:15:23.509Z,100.00
2023-01-11T14:18:31.544Z,100.00
2023-01-11T14:22:01.999Z,100.00
2023-01-11T14:25:28.214Z,100.00
2023-01-11T14:28:29.937Z,100.00
2023-01-11T14:31:45.115Z,100.00
2023-01-11T14:34:46.620Z,100.00
2023-01-11T14:38:15.010Z,100.00
2023-01-11T14:41:27.445Z,100.00
2023-01-11T14:44:53.052Z,100.00
2023-01-11T14:48:06.147Z,100.00
2023-01-11T14:51:33.629Z,100.00
2023-01-11T14:54:39.282Z,100.00
2023-01-11T14:58:06.863Z,100.00
2023-01-11T15:01:11.565Z,100.00
2023-01-11T15:04:22.954Z,100.00
2023-01-11T15:07:34.700Z,100.00
2023-01-11T15:10:37.180Z,100.00
2023-01-11T15:13:49.518Z,100.00
2023-01-11T15:17:18.318Z,100.00
2023-01-11T15:20:21.729Z,100.00
2023-01-11T15:23:24.606Z,100.00
2023-01-11T15:26:27.192Z,100.00
2023-01-11T15:29:45.783Z,100.00
2023-01-11T15:32:47.402Z,100.00
2023-01-11T15:35:55.076Z,100.00
2023-01-11T15:39:05.885Z,100.00
2023-01-11T15:42:16.576Z,100.00
2023-01-11T15:45:20.917Z,100.00
2023-01-11T15:48:45.786Z,100.00
2023-01-11T15:52:05.620Z,100.00
2023-01-11T15:55:31.699Z,100.00
2023-01-11T15:59:01.456Z,99.27
2023-01-11T16:02:22.022Z,99.01
2023-01-11T16:05:34.100Z,99.77
2023-01-11T16:08:55.704Z,97.45
2023-01-11T16:12:06.473Z,97.56
2023-01-11T16:15:42.338Z,98.03
2023-01-11T16:18:48.640Z,97.65
2023-01-11T16:21:55.672Z,98.80
2023-01-11T16:25:01.422Z,98.83
2023-01-11T16:28:04.832Z,98.60
2023-01-11T16:31:09.700Z,98.07
2023-01-11T16:37:57.227Z,100.00
2023-01-11T16:43:50.069Z,100.00
2023-01-11T16:45:55.968Z,100.00
2023-01-11T16:49:16.853Z,100.00
2023-01-11T16:52:40.847Z,100.00
2023-01-11T16:56:03.157Z,100.00
2023-01-11T16:59:24.525Z,100.00
2023-01-11T17:02:31.872Z,100.00
2023-01-11T17:05:33.636Z,100.00
2023-01-11T17:09:00.052Z,100.00
2023-01-11T17:16:01.632Z,100.00
2023-01-11T17:19:46.784Z,99.01
2023-01-11T17:23:16.101Z,97.60
2023-01-11T17:26:24.851Z,96.96
2023-01-11T17:29:56.043Z,97.40
2023-01-11T17:33:31.777Z,94.87
2023-01-11T17:36:37.508Z,94.54
2023-01-11T17:40:06.902Z,94.45
2023-01-11T17:47:25.563Z,92.62
2023-01-11T17:51:14.674Z,94.04
2023-01-11T17:54:23.644Z,95.04
2023-01-11T17:57:35.735Z,96.25
2023-01-11T18:01:07.947Z,96.29
2023-01-11T18:04:19.686Z,97.02
2023-01-11T18:07:21.477Z,95.18
2023-01-11T18:10:57.984Z,94.17
2023-01-11T18:14:17.923Z,93.79
2023-01-11T18:17:58.551Z,92.85
2023-01-11T18:21:26.124Z,94.10
2023-01-11T18:25:19.470Z,91.46
2023-01-11T18:28:27.384Z,90.59
2023-01-11T18:32:00.376Z,88.00
2023-01-11T18:35:02.275Z,86.90
2023-01-11T18:38:13.836Z,86.91
2023-01-11T18:41:44.790Z,87.68
2023-01-11T18:44:49.986Z,87.48
2023-01-11T18:48:13.367Z,87.85
2023-01-11T18:56:11.285Z,87.84
2023-01-11T18:59:27.561Z,88.25
2023-01-11T19:02:42.357Z,88.87
2023-01-11T19:05:53.229Z,89.80
2023-01-11T19:08:55.030Z,89.53
2023-01-11T19:12:00.117Z,89.07
2023-01-11T19:15:04.492Z,88.87
2023-01-11T19:18:18.234Z,88.79
2023-01-11T19:21:19.986Z,88.54
2023-01-11T19:24:24.600Z,87.26
2023-01-11T19:27:34.340Z,86.61
2023-01-11T19:30:43.390Z,87.70
2023-01-11T19:33:52.471Z,87.83
2023-01-11T19:36:55.120Z,88.29
2023-01-11T19:39:56.839Z,87.94
2023-01-11T19:43:04.649Z,88.06
2023-01-11T19:46:15.039Z,87.24
2023-01-11T19:49:19.116Z,87.82
2023-01-11T19:52:21.707Z,86.97
2023-01-11T19:55:23.403Z,86.89
2023-01-11T19:58:26.923Z,86.93
2023-01-11T20:01:28.722Z,87.34
2023-01-11T20:04:30.389Z,86.81
2023-01-11T20:07:32.124Z,86.35
2023-01-11T20:10:34.335Z,86.96
2023-01-11T20:13:36.109Z,87.12
2023-01-11T20:16:37.956Z,87.51
2023-01-11T20:19:39.698Z,87.84
2023-01-11T20:22:44.452Z,88.66
2023-01-11T20:25:46.095Z,88.24
2023-01-11T20:28:54.571Z,87.53
2023-01-11T20:31:58.233Z,85.03
2023-01-11T20:35:05.207Z,84.25
2023-01-11T20:41:58.457Z,83.73
2023-01-11T20:45:00.254Z,85.25
2023-01-11T20:48:02.381Z,85.72
2023-01-11T20:51:04.376Z,86.06
2023-01-11T20:54:06.873Z,84.40
2023-01-11T20:57:12.387Z,85.01
2023-01-11T21:00:18.260Z,84.75
2023-01-11T21:03:20.141Z,84.98
2023-01-11T21:06:32.836Z,84.85
2023-01-11T21:09:34.624Z,83.85
2023-01-11T21:15:38.150Z,83.13
2023-01-11T21:18:43.678Z,81.99
2023-01-11T21:21:45.405Z,82.84
2023-01-11T21:24:48.402Z,82.99
2023-01-11T21:27:50.190Z,80.85
2023-01-11T21:30:54.330Z,80.82
2023-01-11T21:33:56.525Z,81.03
2023-01-11T21:36:58.887Z,80.12
2023-01-11T21:40:00.545Z,80.47
2023-01-11T21:43:02.225Z,79.77
2023-01-11T21:46:06.321Z,79.92
2023-01-11T21:49:08.763Z,79.53
2023-01-11T21:52:11.730Z,77.72
2023-01-11T21:55:14.037Z,76.47
2023-01-11T21:58:17.248Z,77.50
2023-01-11T22:01:20.630Z,76.92
2023-01-11T22:04:22.774Z,76.42
2023-01-11T22:07:27.269Z,77.18
2023-01-11T22:10:29.981Z,78.25
2023-01-11T22:13:33.234Z,78.13
2023-01-11T22:16:35.971Z,78.35
2023-01-11T22:19:37.603Z,79.17
2023-01-11T22:22:39.516Z,80.14
2023-01-11T22:25:41.290Z,80.11
2023-01-11T22:29:02.096Z,80.30
2023-01-11T22:32:04.427Z,81.65
2023-01-11T22:35:06.433Z,81.30
2023-01-11T22:38:08.343Z,81.88
2023-01-11T22:41:10.438Z,80.98
2023-01-11T22:44:12.403Z,80.05
2023-01-11T22:47:18.246Z,79.60
2023-01-11T22:50:19.831Z,78.18
2023-01-11T22:53:21.662Z,77.20
2023-01-11T22:56:25.764Z,74.79
2023-01-11T22:59:28.284Z,72.61
2023-01-11T23:02:33.010Z,74.25
2023-01-11T23:05:44.159Z,73.38
2023-01-11T23:08:45.961Z,73.81
2023-01-11T23:12:22.972Z,74.31
2023-01-11T23:15:24.784Z,74.95
2023-01-11T23:18:26.367Z,74.97
2023-01-11T23:21:28.466Z,75.85
2023-01-11T23:24:30.325Z,75.79
2023-01-11T23:27:32.098Z,77.16
2023-01-11T23:30:33.693Z,76.57
2023-01-11T23:33:35.328Z,77.44
2023-01-11T23:36:39.040Z,78.23
2023-01-11T23:39:40.619Z,78.69
2023-01-11T23:42:42.239Z,79.16
2023-01-11T23:45:43.847Z,79.37
2023-01-11T23:48:47.059Z,78.63
2023-01-11T23:51:48.694Z,79.93
2023-01-11T23:54:50.613Z,80.18
2023-01-11T23:58:10.441Z,79.77
